Overview Statistics Trail Chart Weather Telemetry Raw packets
 

This is the latest recevied weather packets stored in our database for station/object KO4DYK. If no packets are shown the sender has not sent any weather packets the latest 10 day(s).

<< 29 30 31 32 33 34 35 >>
Time Temp. Humidity Pressure Rain* Wind** Luminosity Snow
1788461630 40° C 45% 1016.6 hPa 0 mm - 148 W/m² -
1788461326 40° C 46% 1016.7 hPa 0 mm - 496 W/m² -
1788461023 38.89° C 46% 1016.9 hPa 0 mm - 658 W/m² -
1788460722 38.33° C 51% 1017 hPa 0 mm - 690 W/m² -
1788460417 37.22° C 54% 1016.9 hPa 0 mm - 161 W/m² -
1788460117 37.22° C 53% 1017 hPa 0 mm - 160 W/m² -
1788459816 37.78° C 52% 1017 hPa 0 mm - 178 W/m² -
1788459511 38.33° C 48% 1017.2 hPa 0 mm - 134 W/m² -
1788459206 38.89° C 48% 1017.4 hPa 0 mm - 156 W/m² -
1788458906 38.89° C 47% 1017 hPa 0 mm - 724 W/m² -
1788458606 38.89° C 46% 1017 hPa 0 mm - 749 W/m² -
1788458305 37.78° C 50% 1017.2 hPa 0 mm - 747 W/m² -
1788458005 40° C 46% 1017.4 hPa 0 mm - 677 W/m² -
1788457700 38.89° C 49% 1017.4 hPa 0 mm - 639 W/m² -
1788457395 37.22° C 53% 1017.4 hPa 0 mm - 717 W/m² -
1788457094 37.22° C 55% 1017.5 hPa 0 mm - 212 W/m² -
1788456790 37.22° C 53% 1017.6 hPa 0 mm - 167 W/m² -
1788456486 37.22° C 53% 1017.9 hPa 0 mm - 157 W/m² -
1788456180 38.89° C 52% 1017.7 hPa 0 mm - 695 W/m² -
1788455875 37.78° C 53% 1017.9 hPa 0 mm - 731 W/m² -
1788455571 37.22° C 53% 1017.8 hPa 0 mm - 331 W/m² -
1788455269 36.11° C 60% 1018 hPa 0 mm - 660 W/m² -
1788454966 35.56° C 60% 1018 hPa 0 mm - 169 W/m² -
1788454663 36.11° C 58% 1018.1 hPa 0 mm - 133 W/m² -
1788454358 36.67° C 55% 1018.2 hPa 0 mm - 119 W/m² -

* Rain latest hour (hover to see other rain measurements)
** Current wind speed in m/s (hover to see current wind gust speed)